sensor_id;sensor_type;location;lat;lon;timestamp;temperature;humidity
23839;DHT22;12100;44.384;20.272;2022-07-29T00:00:43;21.20;99.90
23839;DHT22;12100;44.384;20.272;2022-07-29T00:03:12;21.20;99.90
23839;DHT22;12100;44.384;20.272;2022-07-29T00:05:39;21.20;99.90
23839;DHT22;12100;44.384;20.272;2022-07-29T00:08:05;21.20;99.90
23839;DHT22;12100;44.384;20.272;2022-07-29T00:10:31;21.20;99.90
23839;DHT22;12100;44.384;20.272;2022-07-29T00:12:57;21.20;99.90
23839;DHT22;12100;44.384;20.272;2022-07-29T00:15:23;21.20;99.90
23839;DHT22;12100;44.384;20.272;2022-07-29T00:17:49;21.30;99.90
23839;DHT22;12100;44.384;20.272;2022-07-29T00:20:15;21.20;99.90
23839;DHT22;12100;44.384;20.272;2022-07-29T00:22:41;21.20;99.90
23839;DHT22;12100;44.384;20.272;2022-07-29T00:25:07;21.20;99.90
23839;DHT22;12100;44.384;20.272;2022-07-29T00:27:34;21.30;99.90
23839;DHT22;12100;44.384;20.272;2022-07-29T00:30:00;21.30;99.90
23839;DHT22;12100;44.384;20.272;2022-07-29T00:32:26;21.40;99.90
23839;DHT22;12100;44.384;20.272;2022-07-29T00:34:52;21.40;99.90
23839;DHT22;12100;44.384;20.272;2022-07-29T00:37:36;21.40;99.90
23839;DHT22;12100;44.384;20.272;2022-07-29T00:40:03;21.40;99.90
23839;DHT22;12100;44.384;20.272;2022-07-29T00:42:28;21.40;99.90
23839;DHT22;12100;44.384;20.272;2022-07-29T00:44:54;21.50;99.90
23839;DHT22;12100;44.384;20.272;2022-07-29T00:47:20;21.50;99.90
23839;DHT22;12100;44.384;20.272;2022-07-29T00:49:46;21.60;99.90
23839;DHT22;12100;44.384;20.272;2022-07-29T00:52:12;21.70;99.90
23839;DHT22;12100;44.384;20.272;2022-07-29T00:54:39;21.60;99.90
23839;DHT22;12100;44.384;20.272;2022-07-29T00:57:07;21.60;99.90
23839;DHT22;12100;44.384;20.272;2022-07-29T00:59:35;21.60;99.90
23839;DHT22;12100;44.384;20.272;2022-07-29T01:02:02;21.70;99.90
23839;DHT22;12100;44.384;20.272;2022-07-29T01:04:28;21.80;99.90
23839;DHT22;12100;44.384;20.272;2022-07-29T01:06:55;21.80;99.90
23839;DHT22;12100;44.384;20.272;2022-07-29T01:09:21;21.80;99.90
23839;DHT22;12100;44.384;20.272;2022-07-29T01:11:48;21.80;99.90
23839;DHT22;12100;44.384;20.272;2022-07-29T01:14:15;21.90;99.90
23839;DHT22;12100;44.384;20.272;2022-07-29T01:17:16;21.90;99.90
23839;DHT22;12100;44.384;20.272;2022-07-29T01:30:36;21.90;99.90
23839;DHT22;12100;44.384;20.272;2022-07-29T01:33:09;21.90;99.90
23839;DHT22;12100;44.384;20.272;2022-07-29T01:35:39;21.90;99.90
23839;DHT22;12100;44.384;20.272;2022-07-29T01:38:10;21.90;99.60
23839;DHT22;12100;44.384;20.272;2022-07-29T01:40:51;21.90;99.10
23839;DHT22;12100;44.384;20.272;2022-07-29T01:43:21;21.90;98.90
23839;DHT22;12100;44.384;20.272;2022-07-29T01:45:57;21.80;99.10
23839;DHT22;12100;44.384;20.272;2022-07-29T01:48:47;21.80;99.10
23839;DHT22;12100;44.384;20.272;2022-07-29T01:51:20;21.90;98.70
23839;DHT22;12100;44.384;20.272;2022-07-29T01:54:19;21.80;99.30
23839;DHT22;12100;44.384;20.272;2022-07-29T01:56:48;21.80;99.90
23839;DHT22;12100;44.384;20.272;2022-07-29T01:59:16;21.70;99.90
23839;DHT22;12100;44.384;20.272;2022-07-29T02:01:44;21.60;99.90
23839;DHT22;12100;44.384;20.272;2022-07-29T02:04:12;21.60;99.90
23839;DHT22;12100;44.384;20.272;2022-07-29T02:06:39;21.60;99.90
23839;DHT22;12100;44.384;20.272;2022-07-29T02:09:07;21.50;99.90
23839;DHT22;12100;44.384;20.272;2022-07-29T02:11:35;21.50;99.90
23839;DHT22;12100;44.384;20.272;2022-07-29T02:14:04;21.50;99.90
23839;DHT22;12100;44.384;20.272;2022-07-29T02:16:32;21.40;99.90
23839;DHT22;12100;44.384;20.272;2022-07-29T02:19:01;21.30;99.90
23839;DHT22;12100;44.384;20.272;2022-07-29T02:21:28;21.30;99.90
23839;DHT22;12100;44.384;20.272;2022-07-29T02:23:59;21.20;99.90
23839;DHT22;12100;44.384;20.272;2022-07-29T02:26:27;21.20;99.90
23839;DHT22;12100;44.384;20.272;2022-07-29T02:28:56;21.10;99.90
23839;DHT22;12100;44.384;20.272;2022-07-29T02:31:25;21.10;99.90
23839;DHT22;12100;44.384;20.272;2022-07-29T02:33:53;21.10;99.90
23839;DHT22;12100;44.384;20.272;2022-07-29T02:36:21;21.00;99.90
23839;DHT22;12100;44.384;20.272;2022-07-29T02:38:48;21.00;99.90
23839;DHT22;12100;44.384;20.272;2022-07-29T02:41:18;20.90;99.90
23839;DHT22;12100;44.384;20.272;2022-07-29T02:46:20;20.90;99.90
23839;DHT22;12100;44.384;20.272;2022-07-29T02:48:55;20.90;99.90
23839;DHT22;12100;44.384;20.272;2022-07-29T02:51:58;20.90;99.90
23839;DHT22;12100;44.384;20.272;2022-07-29T02:54:44;20.90;99.90
23839;DHT22;12100;44.384;20.272;2022-07-29T02:57:36;21.00;99.90
23839;DHT22;12100;44.384;20.272;2022-07-29T03:00:05;21.00;99.90
23839;DHT22;12100;44.384;20.272;2022-07-29T03:02:35;21.00;99.90
23839;DHT22;12100;44.384;20.272;2022-07-29T03:05:03;21.00;99.90
23839;DHT22;12100;44.384;20.272;2022-07-29T03:07:30;21.00;99.90
23839;DHT22;12100;44.384;20.272;2022-07-29T03:09:57;21.00;99.90
23839;DHT22;12100;44.384;20.272;2022-07-29T03:12:23;21.00;99.90
23839;DHT22;12100;44.384;20.272;2022-07-29T03:14:50;21.10;99.90
23839;DHT22;12100;44.384;20.272;2022-07-29T03:17:16;21.00;99.90
23839;DHT22;12100;44.384;20.272;2022-07-29T03:19:43;21.10;99.90
23839;DHT22;12100;44.384;20.272;2022-07-29T03:22:09;21.10;99.90
23839;DHT22;12100;44.384;20.272;2022-07-29T03:24:37;21.20;99.90
23839;DHT22;12100;44.384;20.272;2022-07-29T03:27:04;21.20;99.90
23839;DHT22;12100;44.384;20.272;2022-07-29T03:29:30;21.20;99.90
23839;DHT22;12100;44.384;20.272;2022-07-29T03:31:56;21.20;99.90
23839;DHT22;12100;44.384;20.272;2022-07-29T03:34:22;21.10;99.90
23839;DHT22;12100;44.384;20.272;2022-07-29T03:36:48;21.20;99.90
23839;DHT22;12100;44.384;20.272;2022-07-29T03:39:17;21.20;99.90
23839;DHT22;12100;44.384;20.272;2022-07-29T03:41:46;21.20;99.90
23839;DHT22;12100;44.384;20.272;2022-07-29T03:44:14;21.20;99.90
23839;DHT22;12100;44.384;20.272;2022-07-29T03:46:42;21.20;99.90
23839;DHT22;12100;44.384;20.272;2022-07-29T03:49:09;21.20;99.90
23839;DHT22;12100;44.384;20.272;2022-07-29T03:51:36;21.20;99.90
23839;DHT22;12100;44.384;20.272;2022-07-29T03:54:05;21.30;99.90
23839;DHT22;12100;44.384;20.272;2022-07-29T03:56:34;21.30;99.90
23839;DHT22;12100;44.384;20.272;2022-07-29T03:59:02;21.40;99.90
23839;DHT22;12100;44.384;20.272;2022-07-29T04:01:29;21.50;99.90
23839;DHT22;12100;44.384;20.272;2022-07-29T04:03:56;21.50;99.90
23839;DHT22;12100;44.384;20.272;2022-07-29T04:06:22;21.60;99.90
23839;DHT22;12100;44.384;20.272;2022-07-29T04:08:48;21.60;99.90
23839;DHT22;12100;44.384;20.272;2022-07-29T04:11:14;21.60;99.90
23839;DHT22;12100;44.384;20.272;2022-07-29T04:13:39;21.60;99.90
23839;DHT22;12100;44.384;20.272;2022-07-29T04:16:05;21.60;99.90
23839;DHT22;12100;44.384;20.272;2022-07-29T04:18:31;21.70;99.90
23839;DHT22;12100;44.384;20.272;2022-07-29T04:20:57;21.60;99.90
23839;DHT22;12100;44.384;20.272;2022-07-29T04:23:26;21.60;99.90
23839;DHT22;12100;44.384;20.272;2022-07-29T04:25:52;21.60;99.90
23839;DHT22;12100;44.384;20.272;2022-07-29T04:28:18;21.70;99.90
23839;DHT22;12100;44.384;20.272;2022-07-29T04:30:44;21.70;99.90
23839;DHT22;12100;44.384;20.272;2022-07-29T04:33:10;21.80;99.90
23839;DHT22;12100;44.384;20.272;2022-07-29T04:35:37;21.90;99.90
23839;DHT22;12100;44.384;20.272;2022-07-29T04:38:04;21.90;99.90
23839;DHT22;12100;44.384;20.272;2022-07-29T04:40:30;22.00;99.90
23839;DHT22;12100;44.384;20.272;2022-07-29T04:42:56;22.20;99.90
23839;DHT22;12100;44.384;20.272;2022-07-29T04:45:22;22.30;99.90
23839;DHT22;12100;44.384;20.272;2022-07-29T04:47:48;22.40;99.90
23839;DHT22;12100;44.384;20.272;2022-07-29T04:50:13;22.90;99.90
23839;DHT22;12100;44.384;20.272;2022-07-29T04:52:39;23.70;99.90
23839;DHT22;12100;44.384;20.272;2022-07-29T04:55:06;23.60;99.40
23839;DHT22;12100;44.384;20.272;2022-07-29T04:57:32;23.60;98.80
23839;DHT22;12100;44.384;20.272;2022-07-29T04:59:58;23.60;99.20
23839;DHT22;12100;44.384;20.272;2022-07-29T05:02:24;23.40;99.00
23839;DHT22;12100;44.384;20.272;2022-07-29T05:04:49;23.30;99.90
23839;DHT22;12100;44.384;20.272;2022-07-29T05:07:15;23.20;99.90
23839;DHT22;12100;44.384;20.272;2022-07-29T05:09:41;23.10;99.90
23839;DHT22;12100;44.384;20.272;2022-07-29T05:12:07;23.20;99.90
23839;DHT22;12100;44.384;20.272;2022-07-29T05:14:33;23.60;99.90
23839;DHT22;12100;44.384;20.272;2022-07-29T05:16:59;24.70;97.70
23839;DHT22;12100;44.384;20.272;2022-07-29T05:19:25;26.50;90.40
23839;DHT22;12100;44.384;20.272;2022-07-29T05:21:51;27.50;82.80
23839;DHT22;12100;44.384;20.272;2022-07-29T05:24:16;29.00;76.80
23839;DHT22;12100;44.384;20.272;2022-07-29T05:29:08;31.60;65.50
23839;DHT22;12100;44.384;20.272;2022-07-29T05:31:34;33.40;58.50
23839;DHT22;12100;44.384;20.272;2022-07-29T05:36:26;33.60;58.40
23839;DHT22;12100;44.384;20.272;2022-07-29T05:38:52;33.50;57.30
23839;DHT22;12100;44.384;20.272;2022-07-29T05:41:19;33.60;56.00
23839;DHT22;12100;44.384;20.272;2022-07-29T05:46:11;34.90;54.20
23839;DHT22;12100;44.384;20.272;2022-07-29T05:48:37;33.90;54.70
23839;DHT22;12100;44.384;20.272;2022-07-29T05:51:03;33.40;57.10
23839;DHT22;12100;44.384;20.272;2022-07-29T05:53:28;33.80;56.40
23839;DHT22;12100;44.384;20.272;2022-07-29T05:55:54;33.50;57.00
23839;DHT22;12100;44.384;20.272;2022-07-29T05:58:20;33.70;56.00
23839;DHT22;12100;44.384;20.272;2022-07-29T06:00:46;34.80;54.60
23839;DHT22;12100;44.384;20.272;2022-07-29T06:03:12;34.00;54.70
23839;DHT22;12100;44.384;20.272;2022-07-29T06:05:38;34.80;53.90
23839;DHT22;12100;44.384;20.272;2022-07-29T06:08:04;34.40;53.60
23839;DHT22;12100;44.384;20.272;2022-07-29T06:10:34;34.70;54.20
23839;DHT22;12100;44.384;20.272;2022-07-29T06:13:00;33.50;55.60
23839;DHT22;12100;44.384;20.272;2022-07-29T06:15:26;33.00;56.20
23839;DHT22;12100;44.384;20.272;2022-07-29T06:17:52;33.10;56.30
23839;DHT22;12100;44.384;20.272;2022-07-29T06:20:18;32.60;56.00
23839;DHT22;12100;44.384;20.272;2022-07-29T06:22:44;32.50;57.30
23839;DHT22;12100;44.384;20.272;2022-07-29T06:25:10;32.40;57.70
23839;DHT22;12100;44.384;20.272;2022-07-29T06:27:37;33.10;57.30
23839;DHT22;12100;44.384;20.272;2022-07-29T06:30:03;33.50;55.80
23839;DHT22;12100;44.384;20.272;2022-07-29T06:32:32;33.00;56.80
23839;DHT22;12100;44.384;20.272;2022-07-29T06:34:58;33.60;56.30
23839;DHT22;12100;44.384;20.272;2022-07-29T06:37:24;33.20;56.70
23839;DHT22;12100;44.384;20.272;2022-07-29T06:39:50;32.90;57.30
23839;DHT22;12100;44.384;20.272;2022-07-29T06:42:36;32.80;56.90
23839;DHT22;12100;44.384;20.272;2022-07-29T06:45:02;32.70;57.40
23839;DHT22;12100;44.384;20.272;2022-07-29T06:47:28;32.50;57.50
23839;DHT22;12100;44.384;20.272;2022-07-29T06:49:53;33.10;56.80
23839;DHT22;12100;44.384;20.272;2022-07-29T06:52:19;32.80;56.40
23839;DHT22;12100;44.384;20.272;2022-07-29T06:54:45;33.30;55.40
23839;DHT22;12100;44.384;20.272;2022-07-29T06:59:39;35.00;52.30
23839;DHT22;12100;44.384;20.272;2022-07-29T07:02:05;36.00;51.00
23839;DHT22;12100;44.384;20.272;2022-07-29T07:04:31;34.20;53.10
23839;DHT22;12100;44.384;20.272;2022-07-29T07:06:57;34.00;53.70
23839;DHT22;12100;44.384;20.272;2022-07-29T07:09:24;34.50;52.90
23839;DHT22;12100;44.384;20.272;2022-07-29T07:11:50;33.10;54.30
23839;DHT22;12100;44.384;20.272;2022-07-29T07:14:16;32.90;55.60
23839;DHT22;12100;44.384;20.272;2022-07-29T07:16:41;33.60;53.90
23839;DHT22;12100;44.384;20.272;2022-07-29T07:19:07;33.20;55.50
23839;DHT22;12100;44.384;20.272;2022-07-29T07:21:33;32.80;56.30
23839;DHT22;12100;44.384;20.272;2022-07-29T07:23:59;31.50;56.10
23839;DHT22;12100;44.384;20.272;2022-07-29T07:26:25;31.40;57.60
23839;DHT22;12100;44.384;20.272;2022-07-29T07:28:52;30.40;60.00
23839;DHT22;12100;44.384;20.272;2022-07-29T07:31:18;30.30;62.70
23839;DHT22;12100;44.384;20.272;2022-07-29T07:33:44;29.60;63.50
23839;DHT22;12100;44.384;20.272;2022-07-29T07:36:10;29.60;65.70
23839;DHT22;12100;44.384;20.272;2022-07-29T07:38:36;29.50;65.70
23839;DHT22;12100;44.384;20.272;2022-07-29T07:41:02;28.70;67.20
23839;DHT22;12100;44.384;20.272;2022-07-29T07:43:28;29.10;67.10
23839;DHT22;12100;44.384;20.272;2022-07-29T07:45:54;29.00;67.10
23839;DHT22;12100;44.384;20.272;2022-07-29T07:48:20;29.00;66.70
23839;DHT22;12100;44.384;20.272;2022-07-29T07:50:45;28.90;66.40
23839;DHT22;12100;44.384;20.272;2022-07-29T07:53:11;29.00;66.20
23839;DHT22;12100;44.384;20.272;2022-07-29T07:55:44;29.00;67.00
23839;DHT22;12100;44.384;20.272;2022-07-29T07:58:10;28.80;67.40
23839;DHT22;12100;44.384;20.272;2022-07-29T08:00:37;28.70;67.30
23839;DHT22;12100;44.384;20.272;2022-07-29T08:03:03;28.90;67.90
23839;DHT22;12100;44.384;20.272;2022-07-29T08:05:29;28.90;66.60
23839;DHT22;12100;44.384;20.272;2022-07-29T08:07:55;29.00;67.10
23839;DHT22;12100;44.384;20.272;2022-07-29T08:10:21;29.00;66.80
23839;DHT22;12100;44.384;20.272;2022-07-29T08:13:09;28.90;66.70
23839;DHT22;12100;44.384;20.272;2022-07-29T08:15:39;28.90;66.70
23839;DHT22;12100;44.384;20.272;2022-07-29T08:18:06;28.80;66.10
23839;DHT22;12100;44.384;20.272;2022-07-29T08:20:31;28.80;66.10
23839;DHT22;12100;44.384;20.272;2022-07-29T08:22:59;29.00;66.30
23839;DHT22;12100;44.384;20.272;2022-07-29T08:25:25;29.40;65.00
23839;DHT22;12100;44.384;20.272;2022-07-29T08:27:50;29.40;65.40
23839;DHT22;12100;44.384;20.272;2022-07-29T08:30:16;29.40;64.50
23839;DHT22;12100;44.384;20.272;2022-07-29T08:32:42;29.20;65.50
23839;DHT22;12100;44.384;20.272;2022-07-29T08:35:08;29.60;66.00
23839;DHT22;12100;44.384;20.272;2022-07-29T08:37:34;29.60;63.10
23839;DHT22;12100;44.384;20.272;2022-07-29T08:40:00;29.50;65.50
23839;DHT22;12100;44.384;20.272;2022-07-29T08:42:26;29.40;66.90
23839;DHT22;12100;44.384;20.272;2022-07-29T08:44:51;29.20;66.80
23839;DHT22;12100;44.384;20.272;2022-07-29T08:47:19;29.30;67.20
23839;DHT22;12100;44.384;20.272;2022-07-29T09:24:23;29.60;67.90
23839;DHT22;12100;44.384;20.272;2022-07-29T09:26:49;29.80;63.20
23839;DHT22;12100;44.384;20.272;2022-07-29T09:29:17;29.80;63.60
23839;DHT22;12100;44.384;20.272;2022-07-29T09:31:51;29.80;62.30
23839;DHT22;12100;44.384;20.272;2022-07-29T09:34:23;30.00;63.10
23839;DHT22;12100;44.384;20.272;2022-07-29T09:36:51;30.00;62.00
23839;DHT22;12100;44.384;20.272;2022-07-29T09:41:55;29.70;63.10
23839;DHT22;12100;44.384;20.272;2022-07-29T09:44:22;30.10;62.20
23839;DHT22;12100;44.384;20.272;2022-07-29T09:47:02;30.20;62.70
23839;DHT22;12100;44.384;20.272;2022-07-29T09:49:52;30.60;61.30
23839;DHT22;12100;44.384;20.272;2022-07-29T09:52:19;30.80;62.00
23839;DHT22;12100;44.384;20.272;2022-07-29T09:54:45;30.70;61.30
23839;DHT22;12100;44.384;20.272;2022-07-29T09:57:27;30.50;60.50
23839;DHT22;12100;44.384;20.272;2022-07-29T10:00:04;30.50;58.90
23839;DHT22;12100;44.384;20.272;2022-07-29T10:02:35;30.20;59.70
23839;DHT22;12100;44.384;20.272;2022-07-29T10:05:04;30.30;60.60
23839;DHT22;12100;44.384;20.272;2022-07-29T10:07:53;30.20;60.70
23839;DHT22;12100;44.384;20.272;2022-07-29T10:10:30;30.40;60.00
23839;DHT22;12100;44.384;20.272;2022-07-29T10:13:01;30.60;59.70
23839;DHT22;12100;44.384;20.272;2022-07-29T10:15:32;30.40;59.40
23839;DHT22;12100;44.384;20.272;2022-07-29T10:17:59;30.60;61.10
23839;DHT22;12100;44.384;20.272;2022-07-29T10:20:26;30.50;59.20
23839;DHT22;12100;44.384;20.272;2022-07-29T10:22:53;30.50;58.80
23839;DHT22;12100;44.384;20.272;2022-07-29T10:25:19;30.30;58.80
23839;DHT22;12100;44.384;20.272;2022-07-29T10:27:46;30.20;59.20
23839;DHT22;12100;44.384;20.272;2022-07-29T10:30:14;30.60;59.80
23839;DHT22;12100;44.384;20.272;2022-07-29T10:33:10;30.80;60.40
23839;DHT22;12100;44.384;20.272;2022-07-29T10:44:09;30.90;61.10
23839;DHT22;12100;44.384;20.272;2022-07-29T10:46:39;31.10;60.00
23839;DHT22;12100;44.384;20.272;2022-07-29T10:49:15;30.90;59.00
23839;DHT22;12100;44.384;20.272;2022-07-29T10:57:24;31.10;60.10
23839;DHT22;12100;44.384;20.272;2022-07-29T11:05:05;30.90;61.40
23839;DHT22;12100;44.384;20.272;2022-07-29T11:07:32;30.90;61.10
23839;DHT22;12100;44.384;20.272;2022-07-29T11:15:23;30.80;60.00
23839;DHT22;12100;44.384;20.272;2022-07-29T11:20:47;31.10;60.00
23839;DHT22;12100;44.384;20.272;2022-07-29T11:29:05;31.50;57.50
23839;DHT22;12100;44.384;20.272;2022-07-29T11:31:33;31.60;55.80
23839;DHT22;12100;44.384;20.272;2022-07-29T11:34:37;31.50;55.70
23839;DHT22;12100;44.384;20.272;2022-07-29T11:39:39;31.50;58.40
23839;DHT22;12100;44.384;20.272;2022-07-29T11:47:24;31.60;57.40
23839;DHT22;12100;44.384;20.272;2022-07-29T11:49:51;31.50;55.80
23839;DHT22;12100;44.384;20.272;2022-07-29T11:52:18;31.90;57.40
23839;DHT22;12100;44.384;20.272;2022-07-29T11:54:44;32.00;58.40
23839;DHT22;12100;44.384;20.272;2022-07-29T11:57:12;32.00;57.60
23839;DHT22;12100;44.384;20.272;2022-07-29T11:59:41;31.90;57.50
23839;DHT22;12100;44.384;20.272;2022-07-29T12:02:08;31.80;56.40
23839;DHT22;12100;44.384;20.272;2022-07-29T12:04:47;31.70;57.80
23839;DHT22;12100;44.384;20.272;2022-07-29T12:07:13;31.70;56.90
23839;DHT22;12100;44.384;20.272;2022-07-29T12:09:39;31.60;56.50
23839;DHT22;12100;44.384;20.272;2022-07-29T12:12:05;31.60;57.80
23839;DHT22;12100;44.384;20.272;2022-07-29T12:14:32;31.70;58.00
23839;DHT22;12100;44.384;20.272;2022-07-29T12:16:59;32.00;57.10
23839;DHT22;12100;44.384;20.272;2022-07-29T12:19:26;32.00;56.50
23839;DHT22;12100;44.384;20.272;2022-07-29T12:21:55;31.90;56.80
23839;DHT22;12100;44.384;20.272;2022-07-29T12:24:22;32.10;57.30
23839;DHT22;12100;44.384;20.272;2022-07-29T12:26:56;32.30;57.60
23839;DHT22;12100;44.384;20.272;2022-07-29T12:29:22;32.40;56.50
23839;DHT22;12100;44.384;20.272;2022-07-29T12:31:52;32.50;57.10
23839;DHT22;12100;44.384;20.272;2022-07-29T12:34:23;32.70;56.60
23839;DHT22;12100;44.384;20.272;2022-07-29T12:36:52;32.50;55.30
23839;DHT22;12100;44.384;20.272;2022-07-29T12:39:18;32.10;55.70
23839;DHT22;12100;44.384;20.272;2022-07-29T12:41:44;32.20;56.50
23839;DHT22;12100;44.384;20.272;2022-07-29T12:44:11;32.10;56.20
23839;DHT22;12100;44.384;20.272;2022-07-29T12:46:37;32.40;55.30
23839;DHT22;12100;44.384;20.272;2022-07-29T12:49:03;32.50;54.60
23839;DHT22;12100;44.384;20.272;2022-07-29T12:51:30;32.30;55.20
23839;DHT22;12100;44.384;20.272;2022-07-29T12:54:14;32.20;54.90
23839;DHT22;12100;44.384;20.272;2022-07-29T12:56:42;32.40;56.10
23839;DHT22;12100;44.384;20.272;2022-07-29T12:59:19;32.10;55.50
23839;DHT22;12100;44.384;20.272;2022-07-29T13:01:47;32.10;55.20
23839;DHT22;12100;44.384;20.272;2022-07-29T13:04:32;32.40;53.90
23839;DHT22;12100;44.384;20.272;2022-07-29T13:07:10;32.10;55.40
23839;DHT22;12100;44.384;20.272;2022-07-29T13:09:41;32.20;55.50
23839;DHT22;12100;44.384;20.272;2022-07-29T13:12:12;32.30;55.60
23839;DHT22;12100;44.384;20.272;2022-07-29T13:14:56;32.30;52.70
23839;DHT22;12100;44.384;20.272;2022-07-29T13:17:22;32.50;53.40
23839;DHT22;12100;44.384;20.272;2022-07-29T13:20:08;32.60;53.70
23839;DHT22;12100;44.384;20.272;2022-07-29T13:22:38;32.70;54.70
23839;DHT22;12100;44.384;20.272;2022-07-29T13:25:04;32.60;54.30
23839;DHT22;12100;44.384;20.272;2022-07-29T13:27:33;32.70;54.50
23839;DHT22;12100;44.384;20.272;2022-07-29T13:30:01;32.80;54.80
23839;DHT22;12100;44.384;20.272;2022-07-29T13:32:29;32.80;54.40
23839;DHT22;12100;44.384;20.272;2022-07-29T13:34:57;32.90;53.80
23839;DHT22;12100;44.384;20.272;2022-07-29T13:37:24;32.90;52.80
23839;DHT22;12100;44.384;20.272;2022-07-29T13:39:51;32.90;53.50
23839;DHT22;12100;44.384;20.272;2022-07-29T13:42:17;32.70;54.50
23839;DHT22;12100;44.384;20.272;2022-07-29T13:44:44;32.70;53.40
23839;DHT22;12100;44.384;20.272;2022-07-29T13:47:09;32.60;54.20
23839;DHT22;12100;44.384;20.272;2022-07-29T13:49:35;32.80;53.10
23839;DHT22;12100;44.384;20.272;2022-07-29T13:52:02;32.70;53.90
23839;DHT22;12100;44.384;20.272;2022-07-29T13:54:28;32.60;54.50
23839;DHT22;12100;44.384;20.272;2022-07-29T13:56:54;32.80;55.30
23839;DHT22;12100;44.384;20.272;2022-07-29T13:59:20;32.70;53.60
23839;DHT22;12100;44.384;20.272;2022-07-29T14:01:46;32.80;52.20
23839;DHT22;12100;44.384;20.272;2022-07-29T14:04:12;32.90;53.40
23839;DHT22;12100;44.384;20.272;2022-07-29T14:06:38;32.90;54.80
23839;DHT22;12100;44.384;20.272;2022-07-29T14:09:04;32.90;55.20
23839;DHT22;12100;44.384;20.272;2022-07-29T14:11:36;32.80;54.70
23839;DHT22;12100;44.384;20.272;2022-07-29T14:14:04;32.70;54.30
23839;DHT22;12100;44.384;20.272;2022-07-29T14:16:29;32.70;54.70
23839;DHT22;12100;44.384;20.272;2022-07-29T14:18:55;32.60;55.60
23839;DHT22;12100;44.384;20.272;2022-07-29T14:21:21;32.60;54.70
23839;DHT22;12100;44.384;20.272;2022-07-29T14:23:47;32.70;54.00
23839;DHT22;12100;44.384;20.272;2022-07-29T14:26:13;32.50;54.00
23839;DHT22;12100;44.384;20.272;2022-07-29T14:28:39;32.50;54.80
23839;DHT22;12100;44.384;20.272;2022-07-29T14:31:05;32.60;54.70
23839;DHT22;12100;44.384;20.272;2022-07-29T14:33:30;32.50;55.10
23839;DHT22;12100;44.384;20.272;2022-07-29T14:35:56;32.50;55.70
23839;DHT22;12100;44.384;20.272;2022-07-29T14:38:22;32.60;55.70
23839;DHT22;12100;44.384;20.272;2022-07-29T14:40:48;32.80;54.60
23839;DHT22;12100;44.384;20.272;2022-07-29T14:43:14;32.50;55.00
23839;DHT22;12100;44.384;20.272;2022-07-29T14:45:40;32.50;54.40
23839;DHT22;12100;44.384;20.272;2022-07-29T14:48:06;32.50;55.20
23839;DHT22;12100;44.384;20.272;2022-07-29T14:50:33;32.40;55.00
23839;DHT22;12100;44.384;20.272;2022-07-29T14:52:59;32.50;55.30
23839;DHT22;12100;44.384;20.272;2022-07-29T14:55:26;32.50;55.60
23839;DHT22;12100;44.384;20.272;2022-07-29T14:57:52;32.50;55.30
23839;DHT22;12100;44.384;20.272;2022-07-29T15:00:19;32.50;55.50
23839;DHT22;12100;44.384;20.272;2022-07-29T15:02:46;32.40;55.30
23839;DHT22;12100;44.384;20.272;2022-07-29T15:05:12;32.50;56.30
23839;DHT22;12100;44.384;20.272;2022-07-29T15:07:38;32.50;55.70
23839;DHT22;12100;44.384;20.272;2022-07-29T15:10:04;32.30;55.90
23839;DHT22;12100;44.384;20.272;2022-07-29T15:12:31;32.20;55.50
23839;DHT22;12100;44.384;20.272;2022-07-29T15:14:56;32.20;56.30
23839;DHT22;12100;44.384;20.272;2022-07-29T15:17:23;32.20;56.40
23839;DHT22;12100;44.384;20.272;2022-07-29T15:19:48;32.30;56.40
23839;DHT22;12100;44.384;20.272;2022-07-29T15:22:14;32.30;55.70
23839;DHT22;12100;44.384;20.272;2022-07-29T15:24:40;32.50;54.80
23839;DHT22;12100;44.384;20.272;2022-07-29T15:27:06;32.30;55.90
23839;DHT22;12100;44.384;20.272;2022-07-29T15:29:32;32.20;57.00
23839;DHT22;12100;44.384;20.272;2022-07-29T15:31:58;32.20;57.60
23839;DHT22;12100;44.384;20.272;2022-07-29T15:34:24;32.10;56.80
23839;DHT22;12100;44.384;20.272;2022-07-29T15:36:53;32.10;56.80
23839;DHT22;12100;44.384;20.272;2022-07-29T15:39:20;32.10;57.00
23839;DHT22;12100;44.384;20.272;2022-07-29T15:41:46;32.20;57.10
23839;DHT22;12100;44.384;20.272;2022-07-29T15:44:12;32.10;57.00
23839;DHT22;12100;44.384;20.272;2022-07-29T15:46:37;32.10;57.30
23839;DHT22;12100;44.384;20.272;2022-07-29T15:49:21;31.90;57.70
23839;DHT22;12100;44.384;20.272;2022-07-29T15:51:47;31.90;57.70
23839;DHT22;12100;44.384;20.272;2022-07-29T15:54:13;32.00;58.00
23839;DHT22;12100;44.384;20.272;2022-07-29T15:56:39;31.90;57.80
23839;DHT22;12100;44.384;20.272;2022-07-29T15:59:05;31.90;58.00
23839;DHT22;12100;44.384;20.272;2022-07-29T16:01:30;31.90;58.20
23839;DHT22;12100;44.384;20.272;2022-07-29T16:03:57;31.80;58.60
23839;DHT22;12100;44.384;20.272;2022-07-29T16:06:23;31.80;58.10
23839;DHT22;12100;44.384;20.272;2022-07-29T16:08:49;31.60;58.60
23839;DHT22;12100;44.384;20.272;2022-07-29T16:11:14;31.60;58.80
23839;DHT22;12100;44.384;20.272;2022-07-29T16:13:40;31.60;58.50
23839;DHT22;12100;44.384;20.272;2022-07-29T16:16:06;31.40;58.60
23839;DHT22;12100;44.384;20.272;2022-07-29T16:18:32;31.40;59.30
23839;DHT22;12100;44.384;20.272;2022-07-29T16:20:58;31.40;59.20
23839;DHT22;12100;44.384;20.272;2022-07-29T16:23:23;31.40;59.30
23839;DHT22;12100;44.384;20.272;2022-07-29T16:25:49;31.30;59.70
23839;DHT22;12100;44.384;20.272;2022-07-29T16:28:15;31.20;59.80
23839;DHT22;12100;44.384;20.272;2022-07-29T16:30:41;31.30;60.40
23839;DHT22;12100;44.384;20.272;2022-07-29T16:33:07;31.30;58.90
23839;DHT22;12100;44.384;20.272;2022-07-29T16:35:33;31.30;59.10
23839;DHT22;12100;44.384;20.272;2022-07-29T16:38:01;31.20;58.70
23839;DHT22;12100;44.384;20.272;2022-07-29T16:40:27;31.10;58.80
23839;DHT22;12100;44.384;20.272;2022-07-29T16:42:53;31.10;59.00
23839;DHT22;12100;44.384;20.272;2022-07-29T16:45:19;31.00;59.20
23839;DHT22;12100;44.384;20.272;2022-07-29T16:47:44;31.00;58.80
23839;DHT22;12100;44.384;20.272;2022-07-29T16:50:11;30.90;58.90
23839;DHT22;12100;44.384;20.272;2022-07-29T16:52:36;30.80;59.10
23839;DHT22;12100;44.384;20.272;2022-07-29T16:55:03;30.80;59.30
23839;DHT22;12100;44.384;20.272;2022-07-29T16:57:29;30.70;59.20
23839;DHT22;12100;44.384;20.272;2022-07-29T16:59:55;30.70;59.70
23839;DHT22;12100;44.384;20.272;2022-07-29T17:02:20;30.60;59.70